Klamath Falls International, OR

5:00 PM PST on March 01, 2015 (GMT -0800)
Mount Shasta | Change Station
CLOSE
Current Station
Airport
Location: Mount Shasta,
Elevation: 3533 ft
Nearby Weather Stations

Elev 3533 ft 41.32 °N, 122.32 °W | Updated 4 minutes ago

Clear
Clear
48 °F
Feels Like 48 °F
N
9
Wind Variable Wind from WNW

Today
High -- | Low -- °F
--% Chance of Precip.
Yesterday
High -- | Low -- °F
Precip. -- in
6:42 AM 5:56 PM
Waxing Gibbous, 88% visible
Pressure 30.03 in
Visibility 10.0 miles
Clouds Clear
Dew Point 23 °F
Humidity 37%
Rainfall 0.00 in
Snow Depth Not available.
UV 1 out of 12
Pollen 4.70 out of 12
Air Quality Not available.
Flu Activity Not available.
METAR KMHS 020056Z AUTO 30008KT 10SM CLR 09/M05 A2995 RMK AO2 SLP169 T00891050

More Conditions Fewer Conditions

Pressure 30.03 in
Visibility 10.0 miles
Clouds Clear
Dew Point 23 °F
Humidity 37%
Rainfall 0.00 in
Snow Depth Not available.
UV 1 out of 12
Pollen 4.70 out of 12
Air Quality Not available.
Flu Activity Not available.
METAR KMHS 020056Z AUTO 30008KT 10SM CLR 09/M05 A2995 RMK AO2 SLP169 T00891050

More Conditions Fewer Conditions

10-Day Weather Forecast

Almanac

Astronomy

Mar. 01, 2015 Rise Set
Actual Time
Civil Twilight
Nautical Twilight
Astronomical Twilight
Moon
Length of Visible Light
Length of Day
Tomorrow will be .
, % of the Moon is Illuminated

Today's Extremes

State Highs State Lows

Community

WunderPhotos

Upload Photos

1,801,669 photos uploaded!

WunderBlogs® & News

Nearby

Air Quality

  Air Quality AQ Index Pollutant
Not available.

Snow Depth

Station Depth Elevation

Earthquake Activity

City Distance Mag. Time & Date
Minimum magnitude displayed is 2.5.

Coastal Water Temperatures

Place Temperature

Nearby Weather Stations